Flight Track Log - Related Links

Times and Time Zones

All times are in EDT time to prevent confusion due to time zone crossing. See the SWA315 flight status page for this flight to view local times or setup timezone preferences in your user account.

Time Position Orientation Groundspeed Altitude Reporting Facility
EDT Latitude Longitude Course Direction KTS MPH feet Rate Location/Type
Mon 12:56:15 PM 39.9167 -104.6667 56° Northeast 185 213 7,000  Level Denver TRACON
Mon 12:56:52 PM 39.9367 -104.6281 56° Northeast 205 236 8,000 2,000 Climbing Denver Center
Mon 12:57:15 PM 39.9500 -104.5833 69° East 265 305 9,000 1,348 Climbing Denver TRACON
Mon 12:58:21 PM 39.9500 -104.4667 90° East 305 351 10,000 1,104 Climbing Denver TRACON
Mon 12:59:58 PM 39.9403 -104.2953 94° East 329 379 12,000 1,101 Climbing Denver Center
Mon 01:00:59 PM 39.9292 -104.1864 98° East 357 411 12,900 1,984 Climbing Denver Center
Mon 01:02:02 PM 39.9117 -104.0064 97° East 413 475 16,100 2,880 Climbing Denver Center
Mon 01:03:04 PM 39.8939 -103.8364 98° East 441 507 18,900 2,565 Climbing Denver Center
Mon 01:04:06 PM 39.8903 -103.6783 92° East 436 502 21,400 2,226 Climbing Denver Center
Mon 01:05:08 PM 39.8997 -103.5019 86° East 479 551 23,500 1,790 Climbing Denver Center
Mon 01:06:10 PM 39.9097 -103.3181 86° East 505 581 25,100 1,645 Climbing Denver Center
Mon 01:07:12 PM 39.9200 -103.1244 86° East 527 606 26,900 1,790 Climbing Denver Center
Mon 01:08:14 PM 39.9306 -102.9286 86° East 537 618 28,800 1,984 Climbing Denver Center
Mon 01:09:16 PM 39.9411 -102.6989 86° East 539 620 31,000 1,887 Climbing Denver Center
Mon 01:10:18 PM 39.9511 -102.5047 86° East 544 626 32,700 1,707 Climbing Denver Center
Mon 01:11:19 PM 39.9592 -102.3172 87° East 543 625 34,500 1,610 Climbing Denver Center
Mon 01:12:21 PM 39.9697 -102.1025 86° East 534 615 36,000 1,210 Climbing Denver Center
Mon 01:13:23 PM 39.9769 -101.9164 87° East 537 618 37,000 484 Climbing Denver Center
Mon 01:14:25 PM 39.9831 -101.7628 87° East 535 616 37,000  Level Denver Center
Mon 01:15:27 PM 39.9925 -101.5181 87° East 534 615 37,000  Level Denver Center
Mon 01:16:29 PM 40.0008 -101.3025 87° East 534 615 37,000 145 Level Denver Center
Mon 01:17:31 PM 40.0078 -101.1150 87° East 541 623 37,300 968 Climbing Denver Center
Mon 01:18:33 PM 40.0153 -100.9067 87° East 519 597 39,000 823 Climbing Denver Center
Mon 01:19:35 PM 40.0206 -100.7258 88° East 522 601 39,000  Level Denver Center
Mon 01:20:37 PM 40.0272 -100.5147 88° East 525 604 39,000  Level Denver Center
Mon 01:21:38 PM 40.0317 -100.3331 88° East 526 605 39,000  Level Denver Center
Mon 01:22:40 PM 40.0364 -100.1556 88° East 530 610 39,000  Level Denver Center
Mon 01:23:42 PM 40.0417 -99.9350 88° East 532 612 39,000  Level Denver Center
Mon 01:24:44 PM 40.0469 -99.7311 88° East 536 617 39,000  Level Denver Center
Mon 01:25:46 PM 40.0506 -99.5389 89° East 532 612 39,000  Level Denver Center
Mon 01:26:48 PM 40.0550 -99.3467 88° East 532 612 39,000  Level Denver Center
Mon 01:27:49 PM 40.0586 -99.1533 89° East 534 615 39,000  Level Denver Center
Mon 01:28:51 PM 40.0622 -98.9606 89° East 533 613 39,000  Level Denver Center
Mon 01:29:53 PM 40.0661 -98.7292 89° East 532 612 39,000  Level Denver Center
Mon 01:30:55 PM 40.0669 -98.5356 90° East 535 616 39,000  Level Denver Center
Mon 01:32:05 PM 40.0703 -98.3050 89° East 533 613 39,000  Level Minneapolis Center
Mon 01:33:07 PM 40.0728 -98.1125 89° East 533 613 39,000  Level Minneapolis Center
Mon 01:34:09 PM 40.0733 -97.9203 90° East 532 612 39,000  Level Minneapolis Center
Mon 01:35:10 PM 40.0742 -97.7292 90° East 529 609 39,000  Level Minneapolis Center
Mon 01:36:12 PM 40.0750 -97.5358 90° East 532 612 39,000  Level Minneapolis Center
Mon 01:37:14 PM 40.0767 -97.3142 89° East 534 615 39,000  Level Minneapolis Center
Mon 01:38:16 PM 40.0769 -97.1214 90° East 534 615 39,000  Level Minneapolis Center
Mon 01:39:18 PM 40.0764 -96.9289 90° East 532 612 39,000  Level Minneapolis Center
Mon 01:40:20 PM 40.0761 -96.7350 90° East 535 616 39,000  Level Minneapolis Center
Mon 01:41:22 PM 40.0758 -96.5431 90° East 532 612 39,000  Level Minneapolis Center
Mon 01:42:23 PM 40.0744 -96.3489 90° East 536 617 39,000  Level Minneapolis Center
Mon 01:43:25 PM 40.0728 -96.1169 90° East 535 616 39,000  Level Minneapolis Center
Mon 01:44:27 PM 40.0711 -95.9239 91° East 534 615 39,000  Level Minneapolis Center
Mon 01:45:29 PM 40.0689 -95.7306 91° East 535 616 39,000  Level Minneapolis Center
Mon 01:46:31 PM 40.0667 -95.5383 91° East 534 615 39,000  Level Minneapolis Center
Mon 01:47:33 PM 40.0636 -95.3411 91° East 539 620 39,000  Level Minneapolis Center
Mon 01:48:35 PM 40.0611 -95.1467 91° East 539 620 39,000  Level Minneapolis Center
Mon 01:49:36 PM 40.0583 -94.9533 91° East 536 617 39,000  Level Minneapolis Center
Mon 01:50:38 PM 40.0525 -94.7278 92° East 537 618 39,000  Level Minneapolis Center
Mon 01:51:40 PM 40.0489 -94.5339 91° East 538 619 39,000  Level Minneapolis Center
Mon 01:52:42 PM 40.0458 -94.3397 91° East 540 621 39,000  Level Minneapolis Center
Mon 01:53:48 PM 40.0369 -94.1017 93° East 545 627 39,000  Level Kansas City Center
Mon 01:54:52 PM 40.0314 -93.9075 92° East 551 634 39,000  Level Kansas City Center
Mon 01:55:52 PM 40.0253 -93.7119 92° East 548 631 39,000  Level Kansas City Center
Mon 01:56:56 PM 40.0189 -93.5169 92° East 543 625 39,000  Level Kansas City Center
Mon 01:57:57 PM 40.0153 -93.3264 91° East 536 617 39,000  Level Kansas City Center
Mon 01:58:58 PM 40.0067 -93.0939 93° East 541 623 39,000  Level Kansas City Center
Mon 01:59:59 PM 40.0006 -92.9006 92° East 542 624 39,000  Level Kansas City Center
Mon 02:01:03 PM 39.9931 -92.7103 93° East 537 618 39,000  Level Kansas City Center
Mon 02:02:06 PM 39.9875 -92.5183 92° East 541 623 39,000  Level Kansas City Center
Mon 02:03:06 PM 39.9775 -92.2908 93° East 536 617 39,000  Level Kansas City Center
Mon 02:04:07 PM 39.9700 -92.1006 93° East 534 615 39,000  Level Kansas City Center
Mon 02:05:11 PM 39.9606 -91.9103 94° East 535 616 39,000  Level Kansas City Center
Mon 02:06:12 PM 39.9528 -91.7189 93° East 533 613 39,000  Level Kansas City Center
Mon 02:07:15 PM 39.9439 -91.5278 93° East 535 616 39,000  Level Kansas City Center
Mon 02:08:16 PM 39.9317 -91.2983 94° East 535 616 39,000  Level Kansas City Center
Mon 02:09:21 PM 39.9211 -91.1064 94° East 536 617 39,000  Level Kansas City Center
Mon 02:10:21 PM 39.9125 -90.9239 93° East 535 616 39,000 -446 Level Kansas City Center
Mon 02:11:22 PM 39.9011 -90.7322 94° East 534 615 38,100 -968 Descending Kansas City Center
Mon 02:12:25 PM 39.8889 -90.5061 94° East 528 608 37,000 -968 Descending Kansas City Center
Mon 02:13:26 PM 39.8792 -90.3172 94° East 526 605 36,100 -919 Descending Kansas City Center
Mon 02:14:29 PM 39.8678 -90.1269 94° East 528 608 35,100 -528 Descending Kansas City Center
Mon 02:15:31 PM 39.8550 -89.9400 95° East 526 605 35,000 -49 Descending Kansas City Center
Mon 02:16:32 PM 39.8442 -89.7556 94° East 519 597 35,000  Level Kansas City Center
Mon 02:17:35 PM 39.8389 -89.5356 92° East 511 588 35,000 -145 Level Kansas City Center
Mon 02:18:36 PM 39.8256 -89.3542 95° East 511 588 34,700 -624 Descending Kansas City Center
Mon 02:19:40 PM 39.8028 -89.1717 99° East 512 589 33,700 -919 Descending Kansas City Center
Mon 02:20:40 PM 39.7742 -88.9900 102° East 515 593 32,800 -1,065 Descending Kansas City Center
Mon 02:21:44 PM 39.7464 -88.8092 101° East 514 592 31,500 -1,694 Descending Kansas City Center
Mon 02:22:44 PM 39.7208 -88.6308 100° East 508 585 29,300 -2,323 Descending Kansas City Center
Mon 02:23:48 PM 39.6908 -88.4253 101° East 487 560 26,700 -2,323 Descending Kansas City Center
Mon 02:24:48 PM 39.6642 -88.2614 102° East 472 543 24,500 -1,306 Descending Kansas City Center
Mon 02:25:52 PM 39.6500 -88.1061 97° East 449 517 24,000 -309 Descending Kansas City Center
Mon 02:26:25 PM 39.6603 -88.0075 82° East 459 528 24,000 -442 Level Indianapolis Center
Mon 02:27:27 PM 39.6761 -87.8433 83° East 456 525 23,300 -1,415 Descending Indianapolis Center
Mon 02:28:28 PM 39.6919 -87.6806 83° East 455 524 21,100 -2,049 Descending Indianapolis Center
Mon 02:29:30 PM 39.7086 -87.5208 82° East 452 520 19,100 -2,177 Descending Indianapolis Center
Mon 02:30:32 PM 39.7250 -87.3386 83° East 441 507 16,600 -2,226 Descending Indianapolis Center
Mon 02:31:34 PM 39.7394 -87.1928 83° East 428 493 14,500 -2,000 Descending Indianapolis Center
Mon 02:32:35 PM 39.7519 -87.0506 83° East 415 478 12,500 -1,220 Descending Indianapolis Center
Mon 02:33:37 PM 39.7653 -86.9128 83° East 403 464 12,000 -581 Descending Indianapolis Center
Mon 02:34:39 PM 39.7731 -86.7786 86° East 390 449 11,300 -683 Descending Indianapolis Center
Mon 02:35:40 PM 39.7672 -86.6514 93° East 367 422 10,600 -1,073 Descending Indianapolis Center
Mon 02:36:42 PM 39.7767 -86.5344 84° East 350 403 9,100 -1,355 Descending Indianapolis Center
Mon 02:37:44 PM 39.7972 -86.4197 77° East 336 387 7,800 -1,402 Descending Indianapolis Center
Mon 02:38:29 PM 39.8167 -86.3333 74° East 297 342 6,600 -1,714 Descending Indianapolis TRACON
Mon 02:39:29 PM 39.8667 -86.2500 52° Northeast 284 327 4,800 -1,619 Descending Indianapolis TRACON
Mon 02:40:35 PM 39.8667 -86.1500 90° East 258 297 3,200 -900 Descending Indianapolis TRACON
Mon 02:41:29 PM 39.8333 -86.1500 180° South 198 228 3,000 -316 Descending Indianapolis TRACON
Mon 02:42:29 PM 39.8000 -86.2000 229° Southwest 155 178 2,600 -579 Descending Indianapolis TRACON
Mon 02:43:23 PM 39.7667 -86.2333 218° Southwest 151 174 1,900 -778 Descending Indianapolis TRACON

Login

Don't have an account? Register now (free) for customized features, flight alerts, and more!